sensor_id;sensor_type;location;lat;lon;timestamp;P1;durP1;ratioP1;P2;durP2;ratioP2
16900;SDS011;8567;52.540;6.434;2023-12-22T00:01:54;3.53;;;3.22;;
16900;SDS011;8567;52.540;6.434;2023-12-22T00:04:21;3.58;;;3.38;;
16900;SDS011;8567;52.540;6.434;2023-12-22T00:06:48;2.97;;;2.78;;
16900;SDS011;8567;52.540;6.434;2023-12-22T00:09:17;3.00;;;2.80;;
16900;SDS011;8567;52.540;6.434;2023-12-22T00:11:45;3.35;;;3.10;;
16900;SDS011;8567;52.540;6.434;2023-12-22T00:14:12;3.17;;;2.97;;
16900;SDS011;8567;52.540;6.434;2023-12-22T00:16:40;3.10;;;2.90;;
16900;SDS011;8567;52.540;6.434;2023-12-22T00:19:08;3.10;;;2.90;;
16900;SDS011;8567;52.540;6.434;2023-12-22T00:21:35;2.90;;;2.70;;
16900;SDS011;8567;52.540;6.434;2023-12-22T00:24:02;3.85;;;3.50;;
16900;SDS011;8567;52.540;6.434;2023-12-22T00:26:29;3.13;;;2.92;;
16900;SDS011;8567;52.540;6.434;2023-12-22T00:28:57;3.30;;;3.10;;
16900;SDS011;8567;52.540;6.434;2023-12-22T00:31:24;3.00;;;2.80;;
16900;SDS011;8567;52.540;6.434;2023-12-22T00:33:51;3.20;;;3.00;;
16900;SDS011;8567;52.540;6.434;2023-12-22T00:36:18;2.95;;;2.75;;
16900;SDS011;8567;52.540;6.434;2023-12-22T00:38:48;3.35;;;3.05;;
16900;SDS011;8567;52.540;6.434;2023-12-22T00:41:15;2.95;;;2.75;;
16900;SDS011;8567;52.540;6.434;2023-12-22T00:43:42;3.00;;;2.80;;
16900;SDS011;8567;52.540;6.434;2023-12-22T00:46:10;3.33;;;3.00;;
16900;SDS011;8567;52.540;6.434;2023-12-22T00:48:37;3.30;;;3.00;;
16900;SDS011;8567;52.540;6.434;2023-12-22T00:51:05;3.15;;;2.95;;
16900;SDS011;8567;52.540;6.434;2023-12-22T00:53:32;3.03;;;2.83;;
16900;SDS011;8567;52.540;6.434;2023-12-22T00:55:59;3.05;;;2.85;;
16900;SDS011;8567;52.540;6.434;2023-12-22T00:58:27;3.75;;;3.45;;
16900;SDS011;8567;52.540;6.434;2023-12-22T01:00:54;3.45;;;3.15;;
16900;SDS011;8567;52.540;6.434;2023-12-22T01:03:23;3.00;;;2.80;;
16900;SDS011;8567;52.540;6.434;2023-12-22T01:05:50;2.97;;;2.78;;
16900;SDS011;8567;52.540;6.434;2023-12-22T01:08:16;3.00;;;2.80;;
16900;SDS011;8567;52.540;6.434;2023-12-22T01:10:43;3.38;;;3.17;;
16900;SDS011;8567;52.540;6.434;2023-12-22T01:13:09;3.10;;;2.90;;
16900;SDS011;8567;52.540;6.434;2023-12-22T01:15:36;3.08;;;2.95;;
16900;SDS011;8567;52.540;6.434;2023-12-22T01:18:03;3.17;;;2.92;;
16900;SDS011;8567;52.540;6.434;2023-12-22T01:20:32;3.00;;;2.78;;
16900;SDS011;8567;52.540;6.434;2023-12-22T01:22:59;2.95;;;2.75;;
16900;SDS011;8567;52.540;6.434;2023-12-22T01:25:26;3.17;;;2.97;;
16900;SDS011;8567;52.540;6.434;2023-12-22T01:27:52;2.90;;;2.70;;
16900;SDS011;8567;52.540;6.434;2023-12-22T01:30:19;3.00;;;2.80;;
16900;SDS011;8567;52.540;6.434;2023-12-22T01:32:46;3.42;;;2.65;;
16900;SDS011;8567;52.540;6.434;2023-12-22T01:35:13;3.28;;;3.08;;
16900;SDS011;8567;52.540;6.434;2023-12-22T01:37:41;3.00;;;2.80;;
16900;SDS011;8567;52.540;6.434;2023-12-22T01:40:12;3.30;;;3.00;;
16900;SDS011;8567;52.540;6.434;2023-12-22T01:42:40;3.00;;;2.80;;
16900;SDS011;8567;52.540;6.434;2023-12-22T01:45:07;2.97;;;2.78;;
16900;SDS011;8567;52.540;6.434;2023-12-22T01:47:35;3.08;;;2.85;;
16900;SDS011;8567;52.540;6.434;2023-12-22T01:50:03;3.05;;;2.88;;
16900;SDS011;8567;52.540;6.434;2023-12-22T01:52:31;3.03;;;2.83;;
16900;SDS011;8567;52.540;6.434;2023-12-22T01:55:00;2.75;;;2.55;;
16900;SDS011;8567;52.540;6.434;2023-12-22T01:57:27;3.00;;;2.70;;
16900;SDS011;8567;52.540;6.434;2023-12-22T01:59:54;3.30;;;3.10;;
16900;SDS011;8567;52.540;6.434;2023-12-22T02:02:23;3.10;;;2.90;;
16900;SDS011;8567;52.540;6.434;2023-12-22T02:04:50;2.70;;;2.50;;
16900;SDS011;8567;52.540;6.434;2023-12-22T02:07:17;3.08;;;2.88;;
16900;SDS011;8567;52.540;6.434;2023-12-22T02:09:44;3.00;;;2.80;;
16900;SDS011;8567;52.540;6.434;2023-12-22T02:12:12;3.20;;;3.00;;
16900;SDS011;8567;52.540;6.434;2023-12-22T02:14:39;3.00;;;2.80;;
16900;SDS011;8567;52.540;6.434;2023-12-22T02:17:10;3.17;;;2.88;;
16900;SDS011;8567;52.540;6.434;2023-12-22T02:19:42;2.90;;;2.70;;
16900;SDS011;8567;52.540;6.434;2023-12-22T02:22:12;3.20;;;2.90;;
16900;SDS011;8567;52.540;6.434;2023-12-22T02:24:40;3.08;;;2.88;;
16900;SDS011;8567;52.540;6.434;2023-12-22T02:27:19;2.92;;;2.72;;
16900;SDS011;8567;52.540;6.434;2023-12-22T02:29:51;3.00;;;2.80;;
16900;SDS011;8567;52.540;6.434;2023-12-22T02:32:29;2.97;;;2.80;;
16900;SDS011;8567;52.540;6.434;2023-12-22T02:34:59;3.00;;;2.80;;
16900;SDS011;8567;52.540;6.434;2023-12-22T02:37:31;2.60;;;2.50;;
16900;SDS011;8567;52.540;6.434;2023-12-22T02:40:02;2.58;;;2.42;;
16900;SDS011;8567;52.540;6.434;2023-12-22T02:42:30;2.72;;;2.63;;
16900;SDS011;8567;52.540;6.434;2023-12-22T02:44:58;3.00;;;2.90;;
16900;SDS011;8567;52.540;6.434;2023-12-22T02:47:26;2.60;;;2.40;;
16900;SDS011;8567;52.540;6.434;2023-12-22T02:49:54;2.90;;;2.78;;
16900;SDS011;8567;52.540;6.434;2023-12-22T02:52:20;2.67;;;2.58;;
16900;SDS011;8567;52.540;6.434;2023-12-22T02:54:48;3.00;;;2.70;;
16900;SDS011;8567;52.540;6.434;2023-12-22T02:57:16;2.90;;;2.70;;
16900;SDS011;8567;52.540;6.434;2023-12-22T02:59:43;2.60;;;2.50;;
16900;SDS011;8567;52.540;6.434;2023-12-22T03:02:10;2.63;;;2.53;;
16900;SDS011;8567;52.540;6.434;2023-12-22T03:04:37;2.70;;;2.50;;
16900;SDS011;8567;52.540;6.434;2023-12-22T03:07:05;2.53;;;2.40;;
16900;SDS011;8567;52.540;6.434;2023-12-22T03:09:32;2.70;;;2.60;;
16900;SDS011;8567;52.540;6.434;2023-12-22T03:12:00;2.85;;;2.67;;
16900;SDS011;8567;52.540;6.434;2023-12-22T03:14:29;2.55;;;2.42;;
16900;SDS011;8567;52.540;6.434;2023-12-22T03:16:58;2.47;;;2.38;;
16900;SDS011;8567;52.540;6.434;2023-12-22T03:19:25;2.42;;;2.33;;
16900;SDS011;8567;52.540;6.434;2023-12-22T03:21:52;2.95;;;2.55;;
16900;SDS011;8567;52.540;6.434;2023-12-22T03:24:18;2.70;;;2.60;;
16900;SDS011;8567;52.540;6.434;2023-12-22T03:26:47;2.92;;;2.83;;
16900;SDS011;8567;52.540;6.434;2023-12-22T03:29:14;2.50;;;2.40;;
16900;SDS011;8567;52.540;6.434;2023-12-22T03:31:43;2.50;;;2.40;;
16900;SDS011;8567;52.540;6.434;2023-12-22T03:34:10;3.13;;;2.92;;
16900;SDS011;8567;52.540;6.434;2023-12-22T03:36:37;2.80;;;2.60;;
16900;SDS011;8567;52.540;6.434;2023-12-22T03:39:05;2.55;;;2.45;;
16900;SDS011;8567;52.540;6.434;2023-12-22T03:41:32;2.50;;;2.40;;
16900;SDS011;8567;52.540;6.434;2023-12-22T03:43:59;2.70;;;2.55;;
16900;SDS011;8567;52.540;6.434;2023-12-22T03:46:26;2.47;;;2.38;;
16900;SDS011;8567;52.540;6.434;2023-12-22T03:48:55;2.50;;;2.40;;
16900;SDS011;8567;52.540;6.434;2023-12-22T03:51:22;2.38;;;2.28;;
16900;SDS011;8567;52.540;6.434;2023-12-22T03:53:49;2.40;;;2.30;;
16900;SDS011;8567;52.540;6.434;2023-12-22T03:56:16;2.55;;;2.40;;
16900;SDS011;8567;52.540;6.434;2023-12-22T03:58:44;2.40;;;2.30;;
16900;SDS011;8567;52.540;6.434;2023-12-22T04:01:13;2.70;;;2.50;;
16900;SDS011;8567;52.540;6.434;2023-12-22T04:03:40;2.75;;;2.63;;
16900;SDS011;8567;52.540;6.434;2023-12-22T04:06:09;2.60;;;2.50;;
16900;SDS011;8567;52.540;6.434;2023-12-22T04:08:36;2.42;;;2.33;;
16900;SDS011;8567;52.540;6.434;2023-12-22T04:11:03;2.58;;;2.47;;
16900;SDS011;8567;52.540;6.434;2023-12-22T04:13:30;2.70;;;2.50;;
16900;SDS011;8567;52.540;6.434;2023-12-22T04:15:56;2.75;;;2.58;;
16900;SDS011;8567;52.540;6.434;2023-12-22T04:18:23;2.50;;;2.40;;
16900;SDS011;8567;52.540;6.434;2023-12-22T04:20:50;2.40;;;2.30;;
16900;SDS011;8567;52.540;6.434;2023-12-22T04:23:21;2.40;;;2.30;;
16900;SDS011;8567;52.540;6.434;2023-12-22T04:25:48;2.42;;;2.33;;
16900;SDS011;8567;52.540;6.434;2023-12-22T04:28:16;3.20;;;3.00;;
16900;SDS011;8567;52.540;6.434;2023-12-22T04:30:44;2.50;;;2.40;;
16900;SDS011;8567;52.540;6.434;2023-12-22T04:33:11;2.85;;;2.75;;
16900;SDS011;8567;52.540;6.434;2023-12-22T04:35:39;2.70;;;2.60;;
16900;SDS011;8567;52.540;6.434;2023-12-22T04:38:07;2.97;;;2.78;;
16900;SDS011;8567;52.540;6.434;2023-12-22T04:40:36;2.80;;;2.65;;
16900;SDS011;8567;52.540;6.434;2023-12-22T04:43:05;3.10;;;2.85;;
16900;SDS011;8567;52.540;6.434;2023-12-22T04:45:32;2.80;;;2.70;;
16900;SDS011;8567;52.540;6.434;2023-12-22T04:47:59;3.00;;;2.80;;
16900;SDS011;8567;52.540;6.434;2023-12-22T04:50:26;3.00;;;2.80;;
16900;SDS011;8567;52.540;6.434;2023-12-22T04:52:53;2.65;;;2.45;;
16900;SDS011;8567;52.540;6.434;2023-12-22T04:55:20;2.67;;;2.58;;
16900;SDS011;8567;52.540;6.434;2023-12-22T04:57:48;2.90;;;2.80;;
16900;SDS011;8567;52.540;6.434;2023-12-22T05:00:16;2.53;;;2.42;;
16900;SDS011;8567;52.540;6.434;2023-12-22T05:02:43;3.20;;;3.00;;
16900;SDS011;8567;52.540;6.434;2023-12-22T05:05:09;2.80;;;2.60;;
16900;SDS011;8567;52.540;6.434;2023-12-22T05:07:37;2.60;;;2.50;;
16900;SDS011;8567;52.540;6.434;2023-12-22T05:10:05;2.67;;;2.58;;
16900;SDS011;8567;52.540;6.434;2023-12-22T05:12:33;2.80;;;2.70;;
16900;SDS011;8567;52.540;6.434;2023-12-22T05:15:02;2.83;;;2.70;;
16900;SDS011;8567;52.540;6.434;2023-12-22T05:17:29;2.72;;;2.63;;
16900;SDS011;8567;52.540;6.434;2023-12-22T05:19:57;3.00;;;2.83;;
16900;SDS011;8567;52.540;6.434;2023-12-22T05:22:25;2.92;;;2.72;;
16900;SDS011;8567;52.540;6.434;2023-12-22T05:24:54;2.70;;;2.60;;
16900;SDS011;8567;52.540;6.434;2023-12-22T05:27:21;2.88;;;2.67;;
16900;SDS011;8567;52.540;6.434;2023-12-22T05:29:48;2.95;;;2.78;;
16900;SDS011;8567;52.540;6.434;2023-12-22T05:32:18;2.88;;;2.70;;
16900;SDS011;8567;52.540;6.434;2023-12-22T05:34:45;2.60;;;2.50;;
16900;SDS011;8567;52.540;6.434;2023-12-22T05:37:12;3.20;;;3.00;;
16900;SDS011;8567;52.540;6.434;2023-12-22T05:39:39;2.70;;;2.60;;
16900;SDS011;8567;52.540;6.434;2023-12-22T05:42:08;3.20;;;3.00;;
16900;SDS011;8567;52.540;6.434;2023-12-22T05:44:35;2.55;;;2.42;;
16900;SDS011;8567;52.540;6.434;2023-12-22T05:47:04;2.90;;;2.70;;
16900;SDS011;8567;52.540;6.434;2023-12-22T05:49:32;3.10;;;2.90;;
16900;SDS011;8567;52.540;6.434;2023-12-22T05:51:59;2.78;;;2.67;;
16900;SDS011;8567;52.540;6.434;2023-12-22T05:54:26;3.10;;;2.90;;
16900;SDS011;8567;52.540;6.434;2023-12-22T05:56:53;3.22;;;3.03;;
16900;SDS011;8567;52.540;6.434;2023-12-22T05:59:20;2.78;;;2.67;;
16900;SDS011;8567;52.540;6.434;2023-12-22T06:01:47;3.15;;;2.95;;
16900;SDS011;8567;52.540;6.434;2023-12-22T06:04:14;3.10;;;2.90;;
16900;SDS011;8567;52.540;6.434;2023-12-22T06:06:42;3.20;;;3.00;;
16900;SDS011;8567;52.540;6.434;2023-12-22T06:09:10;3.00;;;2.80;;
16900;SDS011;8567;52.540;6.434;2023-12-22T06:11:38;2.50;;;2.40;;
16900;SDS011;8567;52.540;6.434;2023-12-22T06:14:05;2.80;;;2.60;;
16900;SDS011;8567;52.540;6.434;2023-12-22T06:16:32;3.33;;;3.13;;
16900;SDS011;8567;52.540;6.434;2023-12-22T06:18:59;3.05;;;2.85;;
16900;SDS011;8567;52.540;6.434;2023-12-22T06:21:26;2.90;;;2.80;;
16900;SDS011;8567;52.540;6.434;2023-12-22T06:23:54;2.88;;;2.70;;
16900;SDS011;8567;52.540;6.434;2023-12-22T06:26:21;2.83;;;2.70;;
16900;SDS011;8567;52.540;6.434;2023-12-22T06:28:48;3.20;;;3.00;;
16900;SDS011;8567;52.540;6.434;2023-12-22T06:31:16;2.95;;;2.85;;
16900;SDS011;8567;52.540;6.434;2023-12-22T06:33:46;3.10;;;2.90;;
16900;SDS011;8567;52.540;6.434;2023-12-22T06:36:17;2.70;;;2.60;;
16900;SDS011;8567;52.540;6.434;2023-12-22T06:38:45;2.70;;;2.60;;
16900;SDS011;8567;52.540;6.434;2023-12-22T06:41:19;3.33;;;3.13;;
16900;SDS011;8567;52.540;6.434;2023-12-22T06:43:46;3.00;;;2.80;;
16900;SDS011;8567;52.540;6.434;2023-12-22T06:46:16;3.03;;;2.83;;
16900;SDS011;8567;52.540;6.434;2023-12-22T06:48:43;3.17;;;2.88;;
16900;SDS011;8567;52.540;6.434;2023-12-22T06:51:17;3.03;;;2.92;;
16900;SDS011;8567;52.540;6.434;2023-12-22T06:53:45;3.00;;;2.80;;
16900;SDS011;8567;52.540;6.434;2023-12-22T06:56:16;2.72;;;2.63;;
16900;SDS011;8567;52.540;6.434;2023-12-22T06:58:45;2.85;;;2.65;;
16900;SDS011;8567;52.540;6.434;2023-12-22T07:01:17;2.90;;;2.70;;
16900;SDS011;8567;52.540;6.434;2023-12-22T07:03:45;2.70;;;2.60;;
16900;SDS011;8567;52.540;6.434;2023-12-22T07:06:13;3.10;;;2.90;;
16900;SDS011;8567;52.540;6.434;2023-12-22T07:08:43;2.90;;;2.80;;
16900;SDS011;8567;52.540;6.434;2023-12-22T07:11:26;2.97;;;2.78;;
16900;SDS011;8567;52.540;6.434;2023-12-22T07:13:53;3.35;;;3.15;;
16900;SDS011;8567;52.540;6.434;2023-12-22T07:16:22;3.33;;;2.95;;
16900;SDS011;8567;52.540;6.434;2023-12-22T07:18:48;2.70;;;2.50;;
16900;SDS011;8567;52.540;6.434;2023-12-22T07:21:16;2.65;;;2.53;;
16900;SDS011;8567;52.540;6.434;2023-12-22T07:23:43;3.22;;;3.03;;
16900;SDS011;8567;52.540;6.434;2023-12-22T07:26:10;3.42;;;3.13;;
16900;SDS011;8567;52.540;6.434;2023-12-22T07:28:39;3.30;;;3.00;;
16900;SDS011;8567;52.540;6.434;2023-12-22T07:31:06;3.25;;;3.00;;
16900;SDS011;8567;52.540;6.434;2023-12-22T07:33:33;5.60;;;3.42;;
16900;SDS011;8567;52.540;6.434;2023-12-22T07:35:58;4.07;;;2.80;;
16900;SDS011;8567;52.540;6.434;2023-12-22T07:38:26;4.93;;;3.03;;
16900;SDS011;8567;52.540;6.434;2023-12-22T07:40:54;7.03;;;3.28;;
16900;SDS011;8567;52.540;6.434;2023-12-22T07:43:21;4.03;;;2.92;;
16900;SDS011;8567;52.540;6.434;2023-12-22T07:45:50;3.33;;;2.80;;
16900;SDS011;8567;52.540;6.434;2023-12-22T07:48:19;4.63;;;3.13;;
16900;SDS011;8567;52.540;6.434;2023-12-22T07:50:46;4.70;;;2.92;;
16900;SDS011;8567;52.540;6.434;2023-12-22T07:53:13;3.33;;;3.03;;
16900;SDS011;8567;52.540;6.434;2023-12-22T07:55:43;4.45;;;3.08;;
16900;SDS011;8567;52.540;6.434;2023-12-22T07:58:10;3.40;;;3.10;;
16900;SDS011;8567;52.540;6.434;2023-12-22T08:00:37;3.30;;;3.00;;
16900;SDS011;8567;52.540;6.434;2023-12-22T08:03:05;12.10;;;5.95;;
16900;SDS011;8567;52.540;6.434;2023-12-22T08:05:32;6.18;;;4.57;;
16900;SDS011;8567;52.540;6.434;2023-12-22T08:07:59;7.30;;;4.95;;
16900;SDS011;8567;52.540;6.434;2023-12-22T08:10:26;7.47;;;5.03;;
16900;SDS011;8567;52.540;6.434;2023-12-22T08:12:53;5.88;;;5.28;;
16900;SDS011;8567;52.540;6.434;2023-12-22T08:15:20;7.65;;;5.63;;
16900;SDS011;8567;52.540;6.434;2023-12-22T08:17:48;7.18;;;6.05;;
16900;SDS011;8567;52.540;6.434;2023-12-22T08:20:18;7.53;;;5.50;;
16900;SDS011;8567;52.540;6.434;2023-12-22T08:22:45;7.63;;;5.15;;
16900;SDS011;8567;52.540;6.434;2023-12-22T08:25:12;6.30;;;4.85;;
16900;SDS011;8567;52.540;6.434;2023-12-22T08:27:40;5.53;;;4.93;;
16900;SDS011;8567;52.540;6.434;2023-12-22T08:30:08;7.72;;;5.50;;
16900;SDS011;8567;52.540;6.434;2023-12-22T08:32:35;7.03;;;4.25;;
16900;SDS011;8567;52.540;6.434;2023-12-22T08:35:03;4.93;;;4.53;;
16900;SDS011;8567;52.540;6.434;2023-12-22T08:37:32;7.20;;;4.68;;
16900;SDS011;8567;52.540;6.434;2023-12-22T08:39:59;6.03;;;5.05;;
16900;SDS011;8567;52.540;6.434;2023-12-22T08:42:26;5.55;;;4.63;;
16900;SDS011;8567;52.540;6.434;2023-12-22T08:44:55;5.47;;;4.53;;
16900;SDS011;8567;52.540;6.434;2023-12-22T08:47:22;7.60;;;4.13;;
16900;SDS011;8567;52.540;6.434;2023-12-22T08:49:50;5.05;;;4.18;;
16900;SDS011;8567;52.540;6.434;2023-12-22T08:52:17;4.85;;;3.90;;
16900;SDS011;8567;52.540;6.434;2023-12-22T08:54:45;4.53;;;3.67;;
16900;SDS011;8567;52.540;6.434;2023-12-22T08:57:12;4.97;;;4.00;;
16900;SDS011;8567;52.540;6.434;2023-12-22T08:59:40;4.28;;;3.80;;
16900;SDS011;8567;52.540;6.434;2023-12-22T09:02:07;4.68;;;3.38;;
16900;SDS011;8567;52.540;6.434;2023-12-22T09:04:34;4.78;;;3.50;;
16900;SDS011;8567;52.540;6.434;2023-12-22T09:07:01;3.85;;;3.55;;
16900;SDS011;8567;52.540;6.434;2023-12-22T09:09:28;3.92;;;3.60;;
16900;SDS011;8567;52.540;6.434;2023-12-22T09:11:58;3.42;;;3.05;;
16900;SDS011;8567;52.540;6.434;2023-12-22T09:14:25;3.40;;;3.20;;
16900;SDS011;8567;52.540;6.434;2023-12-22T09:16:52;3.50;;;3.20;;
16900;SDS011;8567;52.540;6.434;2023-12-22T09:19:21;3.33;;;3.13;;
16900;SDS011;8567;52.540;6.434;2023-12-22T09:21:48;3.10;;;2.90;;
16900;SDS011;8567;52.540;6.434;2023-12-22T09:24:14;3.45;;;3.15;;
16900;SDS011;8567;52.540;6.434;2023-12-22T09:26:42;3.10;;;2.90;;
16900;SDS011;8567;52.540;6.434;2023-12-22T09:29:10;3.58;;;3.25;;
16900;SDS011;8567;52.540;6.434;2023-12-22T09:31:37;2.60;;;2.40;;
16900;SDS011;8567;52.540;6.434;2023-12-22T09:34:03;3.33;;;3.03;;
16900;SDS011;8567;52.540;6.434;2023-12-22T09:36:30;3.30;;;3.00;;
16900;SDS011;8567;52.540;6.434;2023-12-22T09:38:57;2.95;;;2.75;;
16900;SDS011;8567;52.540;6.434;2023-12-22T09:41:24;3.05;;;2.85;;
16900;SDS011;8567;52.540;6.434;2023-12-22T09:43:51;3.08;;;2.88;;
16900;SDS011;8567;52.540;6.434;2023-12-22T09:46:22;3.53;;;3.22;;
16900;SDS011;8567;52.540;6.434;2023-12-22T09:48:52;2.90;;;2.70;;
16900;SDS011;8567;52.540;6.434;2023-12-22T09:51:19;3.10;;;2.90;;
16900;SDS011;8567;52.540;6.434;2023-12-22T09:53:47;2.67;;;2.58;;
16900;SDS011;8567;52.540;6.434;2023-12-22T09:56:15;2.83;;;2.63;;
16900;SDS011;8567;52.540;6.434;2023-12-22T09:58:44;2.80;;;2.60;;
16900;SDS011;8567;52.540;6.434;2023-12-22T10:01:13;2.63;;;2.42;;
16900;SDS011;8567;52.540;6.434;2023-12-22T10:03:42;3.17;;;2.80;;
16900;SDS011;8567;52.540;6.434;2023-12-22T10:06:09;2.90;;;2.58;;
16900;SDS011;8567;52.540;6.434;2023-12-22T10:08:36;2.63;;;2.42;;
16900;SDS011;8567;52.540;6.434;2023-12-22T10:11:04;2.97;;;2.78;;
16900;SDS011;8567;52.540;6.434;2023-12-22T10:13:33;3.05;;;2.85;;
16900;SDS011;8567;52.540;6.434;2023-12-22T10:16:03;3.10;;;2.90;;
16900;SDS011;8567;52.540;6.434;2023-12-22T10:18:33;2.95;;;2.85;;
16900;SDS011;8567;52.540;6.434;2023-12-22T10:21:02;3.50;;;3.30;;
16900;SDS011;8567;52.540;6.434;2023-12-22T10:23:29;3.33;;;3.13;;
16900;SDS011;8567;52.540;6.434;2023-12-22T10:25:57;3.78;;;3.53;;
16900;SDS011;8567;52.540;6.434;2023-12-22T10:28:24;3.72;;;3.45;;
16900;SDS011;8567;52.540;6.434;2023-12-22T10:30:53;3.60;;;3.40;;
16900;SDS011;8567;52.540;6.434;2023-12-22T10:33:24;3.72;;;3.53;;
16900;SDS011;8567;52.540;6.434;2023-12-22T10:35:53;3.40;;;3.20;;
16900;SDS011;8567;52.540;6.434;2023-12-22T10:38:21;3.20;;;3.00;;
16900;SDS011;8567;52.540;6.434;2023-12-22T10:40:49;3.05;;;2.85;;
16900;SDS011;8567;52.540;6.434;2023-12-22T10:43:16;3.50;;;3.30;;
16900;SDS011;8567;52.540;6.434;2023-12-22T10:45:43;3.88;;;3.67;;
16900;SDS011;8567;52.540;6.434;2023-12-22T10:48:10;4.50;;;4.20;;
16900;SDS011;8567;52.540;6.434;2023-12-22T10:50:38;4.45;;;4.15;;
16900;SDS011;8567;52.540;6.434;2023-12-22T10:53:06;5.32;;;5.03;;
16900;SDS011;8567;52.540;6.434;2023-12-22T10:55:35;5.75;;;5.40;;
16900;SDS011;8567;52.540;6.434;2023-12-22T10:58:03;5.93;;;5.53;;
16900;SDS011;8567;52.540;6.434;2023-12-22T11:00:32;5.38;;;5.07;;
16900;SDS011;8567;52.540;6.434;2023-12-22T11:03:00;4.43;;;4.20;;
16900;SDS011;8567;52.540;6.434;2023-12-22T11:05:33;5.03;;;4.72;;
16900;SDS011;8567;52.540;6.434;2023-12-22T11:08:04;4.53;;;4.13;;
16900;SDS011;8567;52.540;6.434;2023-12-22T11:10:36;4.97;;;4.68;;
16900;SDS011;8567;52.540;6.434;2023-12-22T11:13:08;4.78;;;4.43;;
16900;SDS011;8567;52.540;6.434;2023-12-22T11:15:35;5.18;;;4.88;;
16900;SDS011;8567;52.540;6.434;2023-12-22T11:18:04;4.43;;;4.22;;
16900;SDS011;8567;52.540;6.434;2023-12-22T11:20:32;4.82;;;4.45;;
16900;SDS011;8567;52.540;6.434;2023-12-22T11:22:59;4.50;;;4.20;;
16900;SDS011;8567;52.540;6.434;2023-12-22T11:25:28;4.05;;;3.85;;
16900;SDS011;8567;52.540;6.434;2023-12-22T11:27:57;4.22;;;4.00;;
16900;SDS011;8567;52.540;6.434;2023-12-22T11:30:26;4.50;;;4.30;;
16900;SDS011;8567;52.540;6.434;2023-12-22T11:32:55;4.07;;;3.88;;
16900;SDS011;8567;52.540;6.434;2023-12-22T11:35:23;4.13;;;3.90;;
16900;SDS011;8567;52.540;6.434;2023-12-22T11:37:50;4.03;;;3.72;;
16900;SDS011;8567;52.540;6.434;2023-12-22T11:40:19;4.20;;;3.90;;
16900;SDS011;8567;52.540;6.434;2023-12-22T11:42:48;3.95;;;3.75;;
16900;SDS011;8567;52.540;6.434;2023-12-22T11:45:18;3.95;;;3.75;;
16900;SDS011;8567;52.540;6.434;2023-12-22T11:47:48;4.28;;;4.07;;
16900;SDS011;8567;52.540;6.434;2023-12-22T11:50:27;4.47;;;4.28;;
16900;SDS011;8567;52.540;6.434;2023-12-22T11:52:55;4.10;;;3.90;;
16900;SDS011;8567;52.540;6.434;2023-12-22T11:58:35;3.67;;;3.47;;
16900;SDS011;8567;52.540;6.434;2023-12-22T12:01:05;4.15;;;3.92;;
16900;SDS011;8567;52.540;6.434;2023-12-22T12:03:35;4.10;;;3.90;;
16900;SDS011;8567;52.540;6.434;2023-12-22T12:08:57;3.70;;;3.50;;
16900;SDS011;8567;52.540;6.434;2023-12-22T12:12:08;3.78;;;3.58;;
16900;SDS011;8567;52.540;6.434;2023-12-22T12:14:40;3.35;;;3.15;;
16900;SDS011;8567;52.540;6.434;2023-12-22T12:17:10;3.55;;;3.35;;
16900;SDS011;8567;52.540;6.434;2023-12-22T12:19:37;3.25;;;3.10;;
16900;SDS011;8567;52.540;6.434;2023-12-22T12:22:06;3.70;;;3.50;;
16900;SDS011;8567;52.540;6.434;2023-12-22T12:24:35;3.63;;;3.42;;
16900;SDS011;8567;52.540;6.434;2023-12-22T12:27:03;4.15;;;3.90;;
16900;SDS011;8567;52.540;6.434;2023-12-22T12:29:30;3.95;;;3.75;;
16900;SDS011;8567;52.540;6.434;2023-12-22T12:32:02;3.85;;;3.65;;
16900;SDS011;8567;52.540;6.434;2023-12-22T12:34:31;4.18;;;3.97;;
16900;SDS011;8567;52.540;6.434;2023-12-22T12:36:58;3.95;;;3.75;;
16900;SDS011;8567;52.540;6.434;2023-12-22T12:39:26;4.68;;;4.47;;
16900;SDS011;8567;52.540;6.434;2023-12-22T12:41:57;3.85;;;3.65;;
16900;SDS011;8567;52.540;6.434;2023-12-22T12:44:27;4.05;;;3.85;;
16900;SDS011;8567;52.540;6.434;2023-12-22T12:46:57;4.05;;;3.85;;
16900;SDS011;8567;52.540;6.434;2023-12-22T12:49:25;4.05;;;3.78;;
16900;SDS011;8567;52.540;6.434;2023-12-22T12:51:56;3.53;;;3.33;;
16900;SDS011;8567;52.540;6.434;2023-12-22T12:54:23;4.35;;;4.15;;
16900;SDS011;8567;52.540;6.434;2023-12-22T12:56:49;4.10;;;3.90;;
16900;SDS011;8567;52.540;6.434;2023-12-22T12:59:17;3.40;;;3.30;;
16900;SDS011;8567;52.540;6.434;2023-12-22T13:01:44;4.45;;;4.25;;
16900;SDS011;8567;52.540;6.434;2023-12-22T13:04:12;3.78;;;3.47;;
16900;SDS011;8567;52.540;6.434;2023-12-22T13:06:44;3.50;;;3.40;;
16900;SDS011;8567;52.540;6.434;2023-12-22T13:09:13;4.00;;;3.80;;
16900;SDS011;8567;52.540;6.434;2023-12-22T13:11:40;4.20;;;4.00;;
16900;SDS011;8567;52.540;6.434;2023-12-22T13:14:08;4.20;;;4.00;;
16900;SDS011;8567;52.540;6.434;2023-12-22T13:16:35;3.80;;;3.60;;
16900;SDS011;8567;52.540;6.434;2023-12-22T13:19:03;3.90;;;3.70;;
16900;SDS011;8567;52.540;6.434;2023-12-22T13:21:31;3.88;;;3.67;;
16900;SDS011;8567;52.540;6.434;2023-12-22T13:24:10;3.60;;;3.40;;
16900;SDS011;8567;52.540;6.434;2023-12-22T13:26:40;3.88;;;3.67;;
16900;SDS011;8567;52.540;6.434;2023-12-22T13:29:08;3.92;;;3.72;;
16900;SDS011;8567;52.540;6.434;2023-12-22T13:31:36;3.95;;;3.75;;
16900;SDS011;8567;52.540;6.434;2023-12-22T13:34:07;4.32;;;4.13;;
16900;SDS011;8567;52.540;6.434;2023-12-22T13:36:35;4.45;;;4.25;;
16900;SDS011;8567;52.540;6.434;2023-12-22T13:39:02;5.00;;;4.70;;
16900;SDS011;8567;52.540;6.434;2023-12-22T13:41:32;4.07;;;3.88;;
16900;SDS011;8567;52.540;6.434;2023-12-22T13:44:05;4.50;;;4.30;;
16900;SDS011;8567;52.540;6.434;2023-12-22T13:46:32;5.07;;;4.78;;
16900;SDS011;8567;52.540;6.434;2023-12-22T13:49:02;4.50;;;4.30;;
16900;SDS011;8567;52.540;6.434;2023-12-22T13:51:38;4.97;;;4.70;;
16900;SDS011;8567;52.540;6.434;2023-12-22T13:54:07;4.55;;;4.35;;
16900;SDS011;8567;52.540;6.434;2023-12-22T13:56:35;4.90;;;4.70;;
16900;SDS011;8567;52.540;6.434;2023-12-22T13:59:05;4.95;;;4.75;;
16900;SDS011;8567;52.540;6.434;2023-12-22T14:01:32;5.18;;;4.90;;
16900;SDS011;8567;52.540;6.434;2023-12-22T14:03:59;5.50;;;5.20;;
16900;SDS011;8567;52.540;6.434;2023-12-22T14:06:27;5.88;;;5.57;;
16900;SDS011;8567;52.540;6.434;2023-12-22T14:08:54;5.60;;;5.38;;
16900;SDS011;8567;52.540;6.434;2023-12-22T14:11:21;6.00;;;5.70;;
16900;SDS011;8567;52.540;6.434;2023-12-22T14:13:50;6.25;;;5.95;;
16900;SDS011;8567;52.540;6.434;2023-12-22T14:16:20;5.95;;;5.65;;
16900;SDS011;8567;52.540;6.434;2023-12-22T14:18:47;6.15;;;5.85;;
16900;SDS011;8567;52.540;6.434;2023-12-22T14:21:14;5.78;;;5.47;;
16900;SDS011;8567;52.540;6.434;2023-12-22T14:23:41;6.00;;;5.70;;
16900;SDS011;8567;52.540;6.434;2023-12-22T14:26:08;6.30;;;5.90;;
16900;SDS011;8567;52.540;6.434;2023-12-22T14:28:34;6.35;;;6.05;;
16900;SDS011;8567;52.540;6.434;2023-12-22T14:31:03;6.30;;;6.00;;
16900;SDS011;8567;52.540;6.434;2023-12-22T14:33:30;5.55;;;5.25;;
16900;SDS011;8567;52.540;6.434;2023-12-22T14:35:57;5.43;;;5.03;;
16900;SDS011;8567;52.540;6.434;2023-12-22T14:38:24;5.18;;;4.97;;
16900;SDS011;8567;52.540;6.434;2023-12-22T14:40:51;7.68;;;7.30;;
16900;SDS011;8567;52.540;6.434;2023-12-22T14:43:18;8.10;;;7.60;;
16900;SDS011;8567;52.540;6.434;2023-12-22T14:45:45;8.98;;;8.48;;
16900;SDS011;8567;52.540;6.434;2023-12-22T14:48:13;13.77;;;12.88;;
16900;SDS011;8567;52.540;6.434;2023-12-22T14:50:42;7.85;;;7.45;;
16900;SDS011;8567;52.540;6.434;2023-12-22T14:53:09;7.80;;;7.40;;
16900;SDS011;8567;52.540;6.434;2023-12-22T14:55:36;7.18;;;6.78;;
16900;SDS011;8567;52.540;6.434;2023-12-22T14:58:03;6.40;;;6.00;;
16900;SDS011;8567;52.540;6.434;2023-12-22T15:00:32;5.50;;;5.20;;
16900;SDS011;8567;52.540;6.434;2023-12-22T15:02:59;5.30;;;4.90;;
16900;SDS011;8567;52.540;6.434;2023-12-22T15:05:28;4.78;;;4.57;;
16900;SDS011;8567;52.540;6.434;2023-12-22T15:07:55;3.80;;;3.60;;
16900;SDS011;8567;52.540;6.434;2023-12-22T15:10:22;3.50;;;3.30;;
16900;SDS011;8567;52.540;6.434;2023-12-22T15:12:48;3.20;;;3.10;;